createdAt,value
2022-11-25T00:01:17.326Z,5.03
2022-11-25T00:03:45.612Z,5.04
2022-11-25T00:06:14.363Z,5.08
2022-11-25T00:08:42.965Z,5.15
2022-11-25T00:11:11.115Z,5.20
2022-11-25T00:13:38.503Z,5.20
2022-11-25T00:16:08.514Z,5.17
2022-11-25T00:18:36.514Z,5.07
2022-11-25T00:21:11.844Z,5.03
2022-11-25T00:23:39.326Z,4.97
2022-11-25T00:26:14.840Z,4.96
2022-11-25T00:28:45.844Z,4.92
2022-11-25T00:31:27.599Z,4.91
2022-11-25T00:33:55.165Z,4.91
2022-11-25T00:36:26.446Z,4.90
2022-11-25T00:38:58.905Z,4.91
2022-11-25T00:41:46.024Z,4.91
2022-11-25T00:44:34.864Z,4.90
2022-11-25T00:47:13.708Z,4.92
2022-11-25T00:49:46.403Z,4.95
2022-11-25T00:52:16.065Z,5.01
2022-11-25T00:54:45.064Z,5.04
2022-11-25T00:57:12.979Z,5.01
2022-11-25T00:59:40.783Z,5.03
2022-11-25T01:02:08.310Z,5.04
2022-11-25T01:04:35.908Z,5.06
2022-11-25T01:07:03.880Z,5.07
2022-11-25T01:09:31.759Z,5.10
2022-11-25T01:11:58.883Z,5.13
2022-11-25T01:14:26.645Z,5.14
2022-11-25T01:16:53.777Z,5.15
2022-11-25T01:19:21.323Z,5.18
2022-11-25T01:21:48.566Z,5.17
2022-11-25T01:24:16.446Z,5.20
2022-11-25T01:26:44.385Z,5.22
2022-11-25T01:29:17.752Z,5.22
2022-11-25T01:31:45.756Z,5.20
2022-11-25T01:34:15.912Z,5.24
2022-11-25T01:36:43.363Z,5.24
2022-11-25T01:39:18.883Z,5.17
2022-11-25T01:41:46.703Z,5.21
2022-11-25T01:44:19.683Z,5.31
2022-11-25T01:47:16.083Z,5.36
2022-11-25T01:49:51.932Z,5.37
2022-11-25T01:52:25.876Z,5.39
2022-11-25T01:55:02.704Z,5.37
2022-11-25T01:57:43.683Z,5.38
2022-11-25T02:00:11.423Z,5.36
2022-11-25T02:02:45.247Z,5.34
2022-11-25T02:05:16.142Z,5.36
2022-11-25T02:07:47.139Z,5.27
2022-11-25T02:10:22.742Z,5.23
2022-11-25T02:12:50.591Z,5.25
2022-11-25T02:15:17.762Z,5.22
2022-11-25T02:17:45.523Z,5.25
2022-11-25T02:20:19.185Z,5.23
2022-11-25T02:23:07.344Z,5.23
2022-11-25T02:25:40.543Z,5.19
2022-11-25T02:28:16.866Z,5.20
2022-11-25T02:30:45.682Z,5.21
2022-11-25T02:33:13.862Z,5.23
2022-11-25T02:35:43.423Z,5.25
2022-11-25T02:38:20.822Z,5.26
2022-11-25T02:40:58.942Z,5.20
2022-11-25T02:43:27.327Z,5.15
2022-11-25T02:46:01.699Z,5.10
2022-11-25T02:49:00.758Z,4.92
2022-11-25T02:51:20.943Z,4.82
2022-11-25T02:53:47.986Z,4.74
2022-11-25T02:56:17.307Z,4.73
2022-11-25T02:58:44.464Z,4.76
2022-11-25T03:01:11.929Z,4.76
2022-11-25T03:03:39.150Z,4.58
2022-11-25T03:06:07.282Z,4.68
2022-11-25T03:08:34.664Z,4.66
2022-11-25T03:11:06.690Z,4.69
2022-11-25T03:13:34.383Z,4.69
2022-11-25T03:16:02.240Z,4.67
2022-11-25T03:18:29.376Z,4.64
2022-11-25T03:20:57.183Z,4.65
2022-11-25T03:23:25.684Z,4.66
2022-11-25T03:25:54.444Z,4.70
2022-11-25T03:28:21.952Z,4.67
2022-11-25T03:30:49.062Z,4.64
2022-11-25T03:33:16.264Z,4.67
2022-11-25T03:35:43.924Z,4.64
2022-11-25T03:38:10.923Z,4.62
2022-11-25T03:40:37.962Z,4.60
2022-11-25T03:43:05.266Z,4.55
2022-11-25T03:45:32.473Z,4.53
2022-11-25T03:48:03.186Z,4.50
2022-11-25T03:50:30.223Z,4.46
2022-11-25T03:52:58.003Z,4.47
2022-11-25T03:55:25.907Z,4.47
2022-11-25T03:57:52.985Z,4.43
2022-11-25T04:00:20.451Z,4.43
2022-11-25T04:02:54.331Z,4.44
2022-11-25T04:05:21.785Z,4.42
2022-11-25T04:07:52.330Z,4.42
2022-11-25T04:10:23.509Z,4.45
2022-11-25T04:12:50.625Z,4.47
2022-11-25T04:15:25.463Z,4.46
2022-11-25T04:17:56.963Z,4.44
2022-11-25T04:20:24.564Z,4.45
2022-11-25T04:22:58.063Z,4.44
2022-11-25T04:25:25.063Z,4.44
2022-11-25T04:27:52.564Z,4.45
2022-11-25T04:30:26.466Z,4.46
2022-11-25T04:32:54.268Z,4.50
2022-11-25T04:35:21.406Z,4.53
2022-11-25T04:37:52.403Z,4.57
2022-11-25T04:40:19.523Z,4.57
2022-11-25T04:42:59.340Z,4.53
2022-11-25T04:45:45.395Z,4.52
2022-11-25T04:48:17.223Z,4.42
2022-11-25T04:50:45.584Z,4.43
2022-11-25T04:53:13.923Z,4.34
2022-11-25T04:55:41.508Z,4.28
2022-11-25T04:58:14.943Z,4.19
2022-11-25T05:00:43.051Z,4.14
2022-11-25T05:03:12.403Z,4.14
2022-11-25T05:05:39.763Z,4.19
2022-11-25T05:08:07.427Z,4.19
2022-11-25T05:10:34.752Z,4.28
2022-11-25T05:13:01.787Z,4.42
2022-11-25T05:15:30.457Z,4.54
2022-11-25T05:17:57.638Z,4.63
2022-11-25T05:20:40.907Z,4.55
2022-11-25T05:23:08.064Z,4.52
2022-11-25T05:25:35.049Z,4.55
2022-11-25T05:28:21.065Z,4.35
2022-11-25T05:30:48.352Z,4.28
2022-11-25T05:33:15.841Z,4.35
2022-11-25T05:35:43.560Z,4.34
2022-11-25T05:38:10.600Z,4.34
2022-11-25T05:40:38.432Z,4.36
2022-11-25T05:43:10.281Z,4.36
2022-11-25T05:45:40.005Z,4.32
2022-11-25T05:48:09.273Z,4.35
2022-11-25T05:50:37.451Z,4.34
2022-11-25T05:53:14.123Z,4.32
2022-11-25T05:55:41.501Z,4.31
2022-11-25T05:58:17.831Z,4.24
2022-11-25T06:00:50.227Z,4.21
2022-11-25T06:03:17.530Z,4.17
2022-11-25T06:05:45.578Z,4.09
2022-11-25T06:08:13.956Z,4.13
2022-11-25T06:10:41.326Z,4.05
2022-11-25T06:13:09.638Z,3.79
2022-11-25T06:15:42.533Z,3.59
2022-11-25T06:18:12.223Z,3.62
2022-11-25T06:20:39.758Z,3.66
2022-11-25T06:23:07.856Z,3.71
2022-11-25T06:25:37.539Z,3.74
2022-11-25T06:28:12.773Z,3.81
2022-11-25T06:30:41.439Z,3.92
2022-11-25T06:33:18.157Z,3.96
2022-11-25T06:35:48.498Z,4.00
2022-11-25T06:38:15.476Z,4.11
2022-11-25T06:40:42.523Z,4.17
2022-11-25T06:43:09.598Z,4.27
2022-11-25T06:45:36.736Z,4.37
2022-11-25T06:48:04.039Z,4.44
2022-11-25T06:50:31.045Z,4.46
2022-11-25T06:53:00.205Z,4.55
2022-11-25T06:55:27.178Z,4.49
2022-11-25T06:58:13.628Z,4.49
2022-11-25T07:00:41.301Z,4.52
2022-11-25T07:03:08.264Z,4.53
2022-11-25T07:05:35.318Z,4.62
2022-11-25T07:08:02.400Z,4.67
2022-11-25T07:10:29.410Z,4.74
2022-11-25T07:12:57.638Z,4.72
2022-11-25T07:15:24.668Z,4.78
2022-11-25T07:17:51.645Z,4.82
2022-11-25T07:20:18.839Z,4.87
2022-11-25T07:22:45.923Z,4.86
2022-11-25T07:25:13.058Z,5.02
2022-11-25T07:27:39.998Z,5.11
2022-11-25T07:30:54.824Z,5.14
2022-11-25T07:32:55.536Z,5.24
2022-11-25T07:35:22.579Z,5.29
2022-11-25T07:37:49.671Z,5.34
2022-11-25T07:40:16.738Z,5.44
2022-11-25T07:42:43.718Z,5.52
2022-11-25T07:45:10.961Z,5.61
2022-11-25T07:47:44.841Z,5.71
2022-11-25T07:50:12.078Z,5.79
2022-11-25T07:52:40.887Z,5.88
2022-11-25T07:55:08.527Z,5.89
2022-11-25T07:57:35.688Z,5.94
2022-11-25T08:00:03.040Z,5.99
2022-11-25T08:02:38.812Z,6.07
2022-11-25T08:05:06.680Z,6.18
2022-11-25T08:07:36.732Z,6.27
2022-11-25T08:10:04.460Z,6.34
2022-11-25T08:12:32.861Z,6.42
2022-11-25T08:14:59.739Z,6.54
2022-11-25T08:17:26.664Z,6.65
2022-11-25T08:19:53.738Z,6.72
2022-11-25T08:22:20.778Z,6.78
2022-11-25T08:24:47.879Z,6.84
2022-11-25T08:27:14.938Z,6.93
2022-11-25T08:29:42.161Z,7.00
2022-11-25T08:32:11.988Z,7.10
2022-11-25T08:34:39.221Z,7.20
2022-11-25T08:37:07.840Z,7.33
2022-11-25T08:39:51.670Z,7.46
2022-11-25T08:42:19.760Z,7.57
2022-11-25T08:44:51.061Z,7.74
2022-11-25T08:47:18.178Z,7.86
2022-11-25T08:49:45.585Z,8.02
2022-11-25T08:52:12.657Z,8.13
2022-11-25T08:54:39.724Z,8.29
2022-11-25T08:57:07.038Z,8.42
2022-11-25T08:59:34.844Z,8.56
2022-11-25T09:02:02.855Z,8.73
2022-11-25T09:04:29.949Z,8.89
2022-11-25T09:06:56.918Z,9.02
2022-11-25T09:09:24.000Z,9.14
2022-11-25T09:11:51.109Z,9.29
2022-11-25T09:14:18.234Z,9.38
2022-11-25T09:16:45.484Z,9.52
2022-11-25T09:19:12.626Z,9.67
2022-11-25T09:21:39.659Z,9.82
2022-11-25T09:24:06.717Z,9.88
2022-11-25T09:26:35.974Z,9.91
2022-11-25T09:29:04.119Z,10.03
2022-11-25T09:31:31.112Z,10.14
2022-11-25T09:33:58.464Z,10.27
2022-11-25T09:36:25.459Z,10.38
2022-11-25T09:38:53.306Z,10.49
2022-11-25T09:41:47.718Z,10.67
2022-11-25T09:44:54.848Z,10.98
2022-11-25T09:47:46.854Z,11.18
2022-11-25T09:50:21.338Z,11.38
2022-11-25T09:53:08.781Z,11.70
2022-11-25T09:55:45.226Z,11.96
2022-11-25T09:58:27.319Z,12.12
2022-11-25T10:00:54.478Z,12.35
2022-11-25T10:03:39.821Z,12.39
2022-11-25T10:06:20.548Z,12.44
2022-11-25T10:08:53.260Z,12.55
2022-11-25T10:11:50.177Z,12.65
2022-11-25T10:14:46.805Z,12.83
2022-11-25T10:17:40.302Z,12.98
2022-11-25T10:20:20.522Z,13.10
2022-11-25T10:22:52.358Z,13.18
2022-11-25T10:25:25.625Z,13.36
2022-11-25T10:27:59.618Z,13.48
2022-11-25T10:30:34.360Z,13.82
2022-11-25T10:33:27.620Z,14.01
2022-11-25T10:35:54.640Z,14.12
2022-11-25T10:38:39.281Z,14.16
2022-11-25T10:41:07.878Z,14.40
2022-11-25T10:43:39.677Z,14.46
2022-11-25T10:46:06.829Z,14.78
2022-11-25T10:48:56.961Z,14.88
2022-11-25T10:51:37.860Z,14.94
2022-11-25T10:54:27.617Z,14.97
2022-11-25T10:57:00.619Z,15.06
2022-11-25T10:59:31.658Z,14.96
2022-11-25T11:02:24.220Z,15.07
2022-11-25T11:05:09.698Z,15.15
2022-11-25T11:07:39.949Z,15.39
2022-11-25T11:10:20.619Z,15.35
2022-11-25T11:13:06.526Z,15.62
2022-11-25T11:15:47.532Z,15.61
2022-11-25T11:18:37.441Z,15.72
2022-11-25T11:21:07.639Z,15.90
2022-11-25T11:23:49.698Z,16.20
2022-11-25T11:26:26.165Z,16.33
2022-11-25T11:29:14.322Z,16.42
2022-11-25T11:31:48.429Z,16.43
2022-11-25T11:34:33.611Z,16.50
2022-11-25T11:37:03.498Z,16.53
2022-11-25T11:40:03.537Z,16.64
2022-11-25T11:42:36.657Z,16.65
2022-11-25T11:45:16.119Z,16.77
2022-11-25T11:48:16.624Z,16.84
2022-11-25T11:50:59.939Z,16.78
2022-11-25T11:53:45.760Z,16.92
2022-11-25T11:56:35.165Z,16.99
2022-11-25T11:59:18.057Z,17.01
2022-11-25T12:13:39.080Z,19.13
2022-11-25T12:16:16.645Z,19.66
2022-11-25T12:19:02.406Z,20.64
2022-11-25T12:21:55.261Z,21.49
2022-11-25T12:24:33.424Z,22.06
2022-11-25T12:27:05.846Z,22.76
2022-11-25T12:29:48.218Z,23.60
2022-11-25T12:32:18.458Z,24.46
2022-11-25T12:34:54.220Z,24.75
2022-11-25T12:38:05.459Z,25.60
2022-11-25T12:40:40.918Z,26.62
2022-11-25T12:43:13.580Z,26.76
2022-11-25T12:45:43.168Z,27.48
2022-11-25T12:48:13.681Z,27.94
2022-11-25T12:50:55.739Z,28.56
2022-11-25T12:53:35.218Z,28.45
2022-11-25T12:56:05.358Z,28.73
2022-11-25T12:58:57.336Z,28.58
2022-11-25T13:01:47.248Z,28.49
2022-11-25T13:05:00.466Z,29.30
2022-11-25T13:07:56.184Z,29.89
2022-11-25T13:10:28.899Z,29.84
2022-11-25T13:13:27.657Z,29.65
2022-11-25T13:15:57.613Z,28.42
2022-11-25T13:18:29.378Z,27.83
2022-11-25T13:20:57.439Z,26.95
2022-11-25T13:23:27.259Z,25.53
2022-11-25T13:26:14.781Z,24.38
2022-11-25T13:28:41.887Z,22.92
2022-11-25T13:31:14.987Z,21.88
2022-11-25T13:33:45.006Z,20.92
2022-11-25T13:36:25.299Z,20.03
2022-11-25T13:38:52.280Z,19.31
2022-11-25T13:41:25.459Z,18.26
2022-11-25T13:44:04.834Z,17.83
2022-11-25T13:46:45.155Z,17.18
2022-11-25T13:49:36.617Z,16.72
2022-11-25T13:52:17.077Z,16.18
2022-11-25T13:54:46.541Z,15.62
2022-11-25T13:57:13.548Z,15.28
2022-11-25T13:59:43.602Z,15.05
2022-11-25T14:02:29.100Z,14.77
2022-11-25T14:05:07.981Z,14.50
2022-11-25T14:08:01.159Z,14.22
2022-11-25T14:10:40.119Z,13.99
2022-11-25T14:13:23.037Z,13.80
2022-11-25T14:16:17.872Z,13.60
2022-11-25T14:19:50.700Z,13.40
2022-11-25T14:22:23.560Z,13.18
2022-11-25T14:24:55.157Z,13.10
2022-11-25T14:27:34.341Z,12.97
2022-11-25T14:30:05.918Z,12.85
2022-11-25T14:33:02.601Z,12.72
2022-11-25T14:35:52.602Z,12.57
2022-11-25T14:38:40.938Z,12.45
2022-11-25T14:41:16.601Z,12.36
2022-11-25T14:43:48.839Z,12.25
2022-11-25T14:46:17.252Z,12.15
2022-11-25T14:48:44.954Z,12.09
2022-11-25T14:51:14.140Z,11.99
2022-11-25T14:53:48.109Z,11.80
2022-11-25T14:56:22.300Z,11.61
2022-11-25T14:58:52.644Z,11.50
2022-11-25T15:01:32.791Z,11.36
2022-11-25T15:04:02.938Z,11.24
2022-11-25T15:06:39.245Z,11.18
2022-11-25T15:09:23.898Z,11.11
2022-11-25T15:12:13.037Z,11.07
2022-11-25T15:14:44.059Z,10.89
2022-11-25T15:17:37.565Z,10.75
2022-11-25T15:20:12.925Z,10.65
2022-11-25T15:22:45.500Z,10.56
2022-11-25T15:25:15.868Z,10.47
2022-11-25T15:27:49.298Z,10.36
2022-11-25T15:30:20.958Z,10.23
2022-11-25T15:32:49.280Z,10.17
2022-11-25T15:35:23.901Z,10.08
2022-11-25T15:37:50.917Z,9.99
2022-11-25T15:40:36.814Z,9.91
2022-11-25T15:43:25.809Z,9.82
2022-11-25T15:45:57.862Z,9.74
2022-11-25T15:48:49.740Z,9.66
2022-11-25T15:51:31.739Z,9.59
2022-11-25T15:54:17.707Z,9.52
2022-11-25T15:57:06.879Z,9.45
2022-11-25T15:59:42.858Z,9.35
2022-11-25T16:02:36.516Z,9.31
2022-11-25T16:05:15.319Z,9.22
2022-11-25T16:07:51.134Z,9.18
2022-11-25T16:10:21.918Z,9.14
2022-11-25T16:13:21.180Z,9.08
2022-11-25T16:16:07.439Z,9.05
2022-11-25T16:18:49.458Z,8.98
2022-11-25T16:21:28.100Z,8.96
2022-11-25T16:24:09.898Z,8.93
2022-11-25T16:26:40.449Z,8.90
2022-11-25T16:29:40.973Z,8.88
2022-11-25T16:32:20.839Z,8.85
2022-11-25T16:34:48.338Z,8.86
2022-11-25T16:37:15.468Z,8.87
2022-11-25T16:39:42.577Z,8.86
2022-11-25T16:42:20.981Z,8.87
2022-11-25T16:44:50.910Z,8.86
2022-11-25T16:47:20.486Z,8.86
2022-11-25T16:49:47.778Z,8.86
2022-11-25T16:52:15.318Z,8.86
2022-11-25T16:54:42.429Z,8.84
2022-11-25T16:57:17.018Z,8.84
2022-11-25T16:59:45.682Z,8.84
2022-11-25T17:02:21.899Z,8.86
2022-11-25T17:04:50.347Z,8.84
2022-11-25T17:07:33.639Z,8.83
2022-11-25T17:10:01.089Z,8.77
2022-11-25T17:12:32.260Z,8.79
2022-11-25T17:15:00.945Z,8.79
2022-11-25T17:17:28.785Z,8.78
2022-11-25T17:19:55.903Z,8.78
2022-11-25T17:22:25.460Z,8.78
2022-11-25T17:24:52.583Z,8.75
2022-11-25T17:27:29.922Z,8.74
2022-11-25T17:29:58.917Z,8.74
2022-11-25T17:32:26.587Z,8.74
2022-11-25T17:34:53.772Z,8.73
2022-11-25T17:37:25.365Z,8.73
2022-11-25T17:39:53.813Z,8.74
2022-11-25T17:42:32.294Z,8.72
2022-11-25T17:45:00.127Z,8.75
2022-11-25T17:47:27.219Z,8.71
2022-11-25T17:49:54.949Z,8.71
2022-11-25T17:52:22.166Z,8.68
2022-11-25T17:54:49.406Z,8.63
2022-11-25T17:57:21.417Z,8.55
2022-11-25T17:59:49.220Z,8.40
2022-11-25T18:02:21.340Z,8.33
2022-11-25T18:04:49.147Z,8.29
2022-11-25T18:07:17.187Z,8.25
2022-11-25T18:09:44.662Z,8.19
2022-11-25T18:12:31.099Z,8.16
2022-11-25T18:14:58.268Z,8.10
2022-11-25T18:17:25.360Z,8.08
2022-11-25T18:19:55.577Z,7.98
2022-11-25T18:22:24.383Z,7.93
2022-11-25T18:24:52.780Z,7.95
2022-11-25T18:27:28.840Z,7.84
2022-11-25T18:29:56.802Z,7.68
2022-11-25T18:32:25.381Z,7.70
2022-11-25T18:34:52.863Z,7.76
2022-11-25T18:37:19.999Z,7.75
2022-11-25T18:39:47.293Z,7.75
2022-11-25T18:42:27.053Z,7.76
2022-11-25T18:44:56.202Z,7.76
2022-11-25T18:47:23.752Z,7.79
2022-11-25T18:49:55.532Z,7.77
2022-11-25T18:52:24.638Z,7.79
2022-11-25T18:54:51.622Z,7.74
2022-11-25T18:57:19.556Z,7.78
2022-11-25T18:59:55.941Z,7.79
2022-11-25T19:02:35.099Z,7.79
2022-11-25T19:05:03.042Z,7.75
2022-11-25T19:07:30.028Z,7.72
2022-11-25T19:09:57.102Z,7.68
2022-11-25T19:12:24.639Z,7.65
2022-11-25T19:14:52.879Z,7.60
2022-11-25T19:17:21.891Z,7.59
2022-11-25T19:19:48.981Z,7.51
2022-11-25T19:22:17.913Z,7.48
2022-11-25T19:24:46.327Z,7.48
2022-11-25T19:27:20.187Z,7.43
2022-11-25T19:29:48.141Z,7.43
2022-11-25T19:32:24.460Z,7.43
2022-11-25T19:34:55.128Z,7.41
2022-11-25T19:37:23.147Z,7.43
2022-11-25T19:39:52.359Z,7.46
2022-11-25T19:42:19.699Z,7.46
2022-11-25T19:44:47.279Z,7.48
2022-11-25T19:47:19.929Z,7.48
2022-11-25T19:49:47.642Z,7.53
2022-11-25T19:52:31.329Z,7.55
2022-11-25T19:54:58.380Z,7.56
2022-11-25T19:57:25.599Z,7.59
2022-11-25T19:59:52.700Z,7.60
2022-11-25T20:02:22.381Z,7.59
2022-11-25T20:04:52.958Z,7.55
2022-11-25T20:07:21.363Z,7.55
2022-11-25T20:09:49.579Z,7.50
2022-11-25T20:12:19.318Z,7.46
2022-11-25T20:14:46.763Z,7.44
2022-11-25T20:17:33.125Z,7.35
2022-11-25T20:20:06.561Z,7.35
2022-11-25T20:22:37.939Z,7.32
2022-11-25T20:25:07.742Z,7.34
2022-11-25T20:27:34.838Z,7.35
2022-11-25T20:30:01.819Z,7.36
2022-11-25T20:32:31.298Z,7.31
2022-11-25T20:34:59.260Z,7.32
2022-11-25T20:37:30.100Z,7.33
2022-11-25T20:40:00.288Z,7.35
2022-11-25T20:42:27.667Z,7.34
2022-11-25T20:44:57.698Z,7.31
2022-11-25T20:47:26.512Z,7.32
2022-11-25T20:49:54.099Z,7.30
2022-11-25T20:52:33.046Z,7.25
2022-11-25T20:55:02.058Z,7.21
2022-11-25T20:57:29.320Z,7.20
2022-11-25T20:59:56.286Z,7.18
2022-11-25T21:02:23.467Z,7.18
2022-11-25T21:04:50.522Z,7.13
2022-11-25T21:07:20.613Z,7.08
2022-11-25T21:09:47.738Z,6.99
2022-11-25T21:12:19.271Z,6.95
2022-11-25T21:14:47.646Z,6.91
2022-11-25T21:17:14.866Z,6.87
2022-11-25T21:19:41.858Z,6.86
2022-11-25T21:22:14.854Z,6.83
2022-11-25T21:24:42.921Z,6.81
2022-11-25T21:27:15.708Z,6.80
2022-11-25T21:29:45.405Z,6.78
2022-11-25T21:32:23.664Z,6.73
2022-11-25T21:34:50.860Z,6.68
2022-11-25T21:37:25.919Z,6.66
2022-11-25T21:39:53.060Z,6.62
2022-11-25T21:42:21.582Z,6.63
2022-11-25T21:44:50.271Z,6.61
2022-11-25T21:47:22.559Z,6.57
2022-11-25T21:49:50.578Z,6.55
2022-11-25T21:52:18.677Z,6.54
2022-11-25T21:54:46.385Z,6.49
2022-11-25T21:57:21.720Z,6.48
2022-11-25T21:59:49.082Z,6.44
2022-11-25T22:02:19.380Z,6.42
2022-11-25T22:04:46.858Z,6.39
2022-11-25T22:07:14.752Z,6.38
2022-11-25T22:09:42.646Z,6.35
2022-11-25T22:12:30.847Z,6.32
2022-11-25T22:14:59.677Z,6.25
2022-11-25T22:17:27.159Z,6.24
2022-11-25T22:19:54.238Z,6.23
2022-11-25T22:22:21.542Z,6.25
2022-11-25T22:24:48.585Z,6.28
2022-11-25T22:27:25.284Z,6.27
2022-11-25T22:29:53.303Z,6.27
2022-11-25T22:32:20.725Z,6.24
2022-11-25T22:34:47.921Z,6.18
2022-11-25T22:37:21.040Z,6.20
2022-11-25T22:39:48.458Z,6.22
2022-11-25T22:42:27.927Z,6.21
2022-11-25T22:44:57.615Z,6.25
2022-11-25T22:47:38.161Z,6.24
2022-11-25T22:50:30.218Z,6.28
2022-11-25T22:52:59.259Z,6.26
2022-11-25T22:55:28.985Z,6.24
2022-11-25T22:57:59.000Z,6.23
2022-11-25T23:00:56.577Z,6.24
2022-11-25T23:03:27.218Z,6.16
2022-11-25T23:05:54.548Z,6.14
2022-11-25T23:08:24.797Z,6.16
2022-11-25T23:10:52.638Z,6.18
2022-11-25T23:13:23.404Z,6.19
2022-11-25T23:15:59.035Z,6.26
2022-11-25T23:18:38.945Z,6.28
2022-11-25T23:21:14.378Z,6.31
2022-11-25T23:23:41.478Z,6.28
2022-11-25T23:26:11.327Z,6.28
2022-11-25T23:28:38.605Z,6.21
2022-11-25T23:31:06.039Z,6.18
2022-11-25T23:33:37.300Z,6.17
2022-11-25T23:36:26.118Z,6.11
2022-11-25T23:38:59.420Z,5.92
2022-11-25T23:41:29.446Z,5.92
2022-11-25T23:43:56.798Z,5.87
2022-11-25T23:46:26.578Z,5.77
2022-11-25T23:48:58.936Z,5.61
2022-11-25T23:51:28.521Z,5.61
2022-11-25T23:53:56.678Z,5.63
2022-11-25T23:56:26.077Z,5.64
2022-11-25T23:58:53.138Z,5.62
